x

Capers Nearshore (cap 2) (41029) Weather Station

5:08am - Mon 4th May 2015 All times are EDT. -4 hours from GMT.

  • Wind
    2mph, 4mph gusts
  • Air Temp 68°f
  • Sea Pressure 1023.8mb
  • Capers Nearshore (cap 2)
  • Capers Nearshore (cap 2)

More Historic Weather Station data

Upgrade to MSW Pro to gain access to the past 30 days of data for over 8000 Wavebouys and Weather Stations around the globe.

Join Pro

Comparision Forecast

View Surf forecast
   
Mon 05/04 5:08am 2 4 mph 1023.8mb 68f
4:08am 2 4 mph 1023.5mb 69f
3:08am  -  4 mph 1023.5mb 69f
2:08am 2 4 mph 1023.7mb 69f
1:08am 4
mph
1024mb 69f
12:08am 7 9 mph 1024.1mb 70f
Sun 05/03 11:08pm 9 11 mph 1023.9mb 70f
9:08pm 11 13 mph 1022.9mb 70f
8:08pm 11 13 mph 1022.2mb 70f
7:08pm 9 11 mph 1021.7mb 71f
6:08pm 9 11 mph 1021.6mb 71f
5:08pm 9 11 mph 1021.6mb 70f
4:08pm 11 13 mph 1021.7mb 70f
3:08pm 11 13 mph 1022.3mb 70f
2:08pm 9
mph
1022.5mb 69f
1:08pm 4 7 mph 1022.8mb 69f
12:08pm 4 7 mph 1023.1mb 69f
11:08am  -  2 mph 1022.9mb 70f
10:08am 7 9 mph 1022.4mb 67f
9:08am 9 13 mph 1022mb 66f
8:08am 11 16 mph 1021.3mb 66f
7:08am 9 13 mph 1020.7mb 65f
6:08am 4 7 mph 1019.9mb 65f
5:08am 7 11 mph 1019.6mb 66f
4:08am 7 9 mph 1019.4mb 66f
3:08am 9 11 mph 1019.2mb 68f
2:08am 7 11 mph 1019.5mb 68f
1:08am 9 11 mph 1019.6mb 68f
12:08am 9 11 mph 1019.5mb 68f
Sat 05/02 11:08pm 11 13 mph 1019.4mb 68f
10:08pm 11 16 mph 1018.9mb 68f
9:08pm 13 18 mph 1018.1mb 68f
8:08pm 13 18 mph 1017.3mb 68f
7:08pm 13 18 mph 1016.9mb 69f
6:08pm 16 20 mph 1016.6mb 69f
5:08pm 13 18 mph 1016.4mb 69f
4:08pm 13 16 mph 1016.5mb 68f
3:08pm 11 16 mph 1017.1mb 68f
2:08pm 11
mph
1017.7mb 68f
1:08pm 4 7 mph 1018.2mb 68f
12:08pm  -  4 mph 1018.7mb 68f
11:08am 9 11 mph 1018.7mb 66f
10:08am 11 16 mph 1018.7mb 63f
9:08am 11 16 mph 1018.5mb 61f
8:08am 11 13 mph 1018.1mb 59f
7:08am 9 13 mph 1017.4mb 60f
6:08am 9 11 mph 1016.8mb 59f
5:08am 9 11 mph 1016.6mb 59f
4:08am 7 11 mph 1016.6mb 59f
3:08am 7 9 mph 1016.5mb 59f
2:08am 9 11 mph 1016.8mb 60f
1:08am 13 18 mph 1017.3mb 60f
12:08am 16 18 mph 1017.3mb 60f
Fri 05/01 11:08pm 16 20 mph 1017mb 61f
10:08pm 18 22 mph 1016.3mb 62f
9:08pm 20 25 mph 1015.6mb 63f
8:08pm 18 25 mph 1014.6mb 63f
7:08pm 18 22 mph 1013.5mb 64f
6:08pm 22 31 mph 1012.5mb 66f
5:08pm 22 29 mph 1012mb 65f
4:08pm 22 29 mph 1011.6mb 65f
3:08pm 20 27 mph 1011.6mb 66f
2:08pm 20 27 mph 1011.3mb 66f
1:08pm 16 22 mph 1011mb 65f
12:08pm 16 20 mph 1011.1mb 64f
11:08am 18 25 mph 1011mb 63f
10:08am 18 25 mph 1010.4mb 62f
9:08am 18 22 mph 1010mb 62f
8:08am 13 18 mph 1009.6mb 62f
7:08am 16 22 mph 1009.3mb 61f
6:08am 11 13 mph 1008.3mb 62f
5:08am 16 20 mph 1008.1mb 62f
4:08am 18 22 mph 1007.8mb 63f
3:08am 16 20 mph 1007.8mb 65f
2:08am 16 20 mph 1008.1mb 66f
1:08am 16 18 mph 1008.1mb 68f
12:08am 13 18 mph 1008.4mb 69f
Thu 04/30 11:08pm 13 16 mph 1008.4mb 69f
10:08pm 13 18 mph 1007.6mb 71f
9:08pm 11 16 mph 1006.8mb 70f
8:08pm 13 20 mph 1006.1mb 69f
6:08pm 16 25 mph 1005.1mb 70f
5:08pm 16 20 mph 1005mb 69f
4:08pm 13 18 mph 1004.9mb 69f
3:08pm 11 16 mph 1005.6mb 71f
2:08pm 7 9 mph 1006.1mb 69f
1:08pm 7 13 mph 1006.6mb 67f
12:08pm 13 18 mph 1007.2mb 66f
11:08am 9 13 mph 1007.2mb 64f